»·PEaware :: AAL791 KABQ-KLAX

AAL791 :: KABQ-KLAX

FLIGHT INFORMATION

Flight Status: Arrived
Operator:
American Airlines
More flights by this operator :: More flights under this callsign
Pilot: Chase W. (8260)
Aircraft: BOEING 737-800
(B738)
More flights by this aircraft type
Origin: KABQ Albuquerque Intl Sunport
United States
Destination: KLAX Los Angeles Intl
United States
More flights between these airports :: More routes between these airports
Route: RDRNR3 ZUN J6 DRK J231 HIPPI GABBL HLYWD1
File this flight plan on PilotEdge
Remarks:
Altitude:
(Current/Filed)
38,000ft
Speed:
(Current/Filed)
450kts
Departed: 18-Jun-17 04:21 PM
Arrived: 18-Jun-17 05:52 PM
Distance/Time
Traveled:
587nm/1:31
Distance/Time
To Go:
Arrived

Flight Plot

Page will automatically refresh every two minutes.

Flight plan parsing failed; only flown route is shown


Map Options




Map Legend


Flown Route
Filed Route
Departure Airport
Arrival Airport
Navaid (VOR, NDB)
Fix

Horizontal Profiles

Position Reports

Time Latitude Longitude Heading Altitude Ground
Speed
18-Jun-17 16:06 35.047120 -106.618798 70 5362ft 0kts
18-Jun-17 16:07 35.047120 -106.618798 70 5362ft 0kts
18-Jun-17 16:08 35.047120 -106.618798 70 5362ft 0kts
18-Jun-17 16:09 35.047120 -106.618798 70 5362ft 0kts
18-Jun-17 16:10 35.047120 -106.618798 70 5362ft 0kts
18-Jun-17 16:11 35.047120 -106.618798 70 5362ft 0kts
18-Jun-17 16:12 35.047120 -106.618798 70 5362ft 0kts
18-Jun-17 16:13 35.047120 -106.618798 70 5362ft 0kts
18-Jun-17 16:14 35.047120 -106.618798 70 5362ft 0kts
18-Jun-17 16:15 35.047120 -106.618798 70 5362ft 0kts
18-Jun-17 16:16 35.047120 -106.618798 70 5362ft 0kts
18-Jun-17 16:17 35.047120 -106.618798 70 5362ft 0kts
18-Jun-17 16:18 35.047120 -106.618798 70 5362ft 0kts
18-Jun-17 16:19 35.047120 -106.618799 70 5362ft 0kts
18-Jun-17 16:20 35.047015 -106.619124 184 5362ft 0kts
18-Jun-17 16:21 35.045691 -106.619906 231 5362ft 12kts
18-Jun-17 16:22 35.045252 -106.621364 188 5362ft 0kts
18-Jun-17 16:23 35.044334 -106.617169 90 5362ft 86kts
18-Jun-17 16:24 35.043654 -106.561421 91 6932ft 187kts
18-Jun-17 16:25 35.068132 -106.525735 329 9417ft 199kts
18-Jun-17 16:26 35.085376 -106.584873 269 11001ft 221kts
18-Jun-17 16:27 35.087440 -106.665840 272 12516ft 247kts
18-Jun-17 16:28 35.090648 -106.739026 273 13820ft 251kts
18-Jun-17 16:29 35.101256 -106.823107 280 15308ft 257kts
18-Jun-17 16:30 35.107268 -106.915568 257 16878ft 320kts
18-Jun-17 16:31 35.086563 -107.023970 256 18380ft 334kts
18-Jun-17 16:32 35.064450 -107.134288 256 20233ft 343kts
18-Jun-17 16:33 35.041534 -107.247620 256 22220ft 353kts
18-Jun-17 16:34 35.034518 -107.368846 267 24228ft 378kts
18-Jun-17 16:35 35.030193 -107.501921 268 26244ft 410kts
18-Jun-17 16:36 35.025630 -107.641049 268 28227ft 422kts
18-Jun-17 16:37 35.020876 -107.781151 267 30170ft 434kts
18-Jun-17 16:38 35.015692 -107.928895 267 32161ft 445kts
18-Jun-17 16:39 35.010236 -108.079148 267 34144ft 450kts
18-Jun-17 16:40 35.004540 -108.230817 267 36127ft 451kts
18-Jun-17 16:41 34.998680 -108.381850 267 37944ft 450kts
18-Jun-17 16:42 34.993782 -108.504521 267 38005ft 479kts
18-Jun-17 16:43 34.987813 -108.649978 267 37999ft 484kts
18-Jun-17 16:44 34.981221 -108.805792 266 38000ft 484kts
18-Jun-17 16:45 34.974142 -108.968192 266 38000ft 484kts
18-Jun-17 16:46 34.966840 -109.130742 266 38000ft 484kts
18-Jun-17 16:47 34.956672 -109.292350 265 38000ft 484kts
18-Jun-17 16:48 34.945808 -109.454287 265 38000ft 484kts
18-Jun-17 16:49 34.934726 -109.616198 265 38000ft 484kts
18-Jun-17 16:50 34.923871 -109.771703 264 38000ft 484kts
18-Jun-17 16:51 34.912392 -109.933179 264 38000ft 484kts
18-Jun-17 16:52 34.900657 -110.095186 264 38000ft 484kts
18-Jun-17 16:53 34.889712 -110.243636 264 38000ft 484kts
18-Jun-17 16:54 34.877569 -110.405479 264 38000ft 484kts
18-Jun-17 16:55 34.865231 -110.567033 264 38000ft 484kts
18-Jun-17 16:56 34.853443 -110.718827 264 38000ft 484kts
18-Jun-17 16:58 34.840696 -110.880238 264 38000ft 484kts
18-Jun-17 16:59 34.827793 -111.040872 264 38000ft 484kts
18-Jun-17 17:00 34.814475 -111.203940 264 38000ft 484kts
18-Jun-17 17:01 34.801079 -111.365278 264 38000ft 484kts
18-Jun-17 17:02 34.787459 -111.526708 264 38000ft 484kts
18-Jun-17 17:03 34.774269 -111.680639 263 38000ft 484kts
18-Jun-17 17:04 34.760258 -111.841693 263 38000ft 484kts
18-Jun-17 17:05 34.745992 -112.003153 263 38000ft 484kts
18-Jun-17 17:06 34.731553 -112.164119 263 38000ft 484kts
18-Jun-17 17:07 34.716929 -112.324733 263 38000ft 484kts
18-Jun-17 17:08 34.701782 -112.486338 262 37998ft 484kts
18-Jun-17 17:09 34.683153 -112.646448 262 38000ft 484kts
18-Jun-17 17:10 34.664640 -112.803133 261 38000ft 484kts
18-Jun-17 17:11 34.645464 -112.963582 261 38000ft 484kts
18-Jun-17 17:12 34.625997 -113.124615 261 38000ft 484kts
18-Jun-17 17:13 34.606457 -113.284450 261 38000ft 484kts
18-Jun-17 17:14 34.586785 -113.443593 261 38000ft 484kts
18-Jun-17 17:15 34.566618 -113.604955 261 38000ft 484kts
18-Jun-17 17:16 34.548620 -113.763103 262 38000ft 484kts
18-Jun-17 17:17 34.530727 -113.923273 262 38000ft 484kts
18-Jun-17 17:18 34.509614 -114.082736 256 38003ft 484kts
18-Jun-17 17:19 34.477081 -114.238832 255 38000ft 484kts
18-Jun-17 17:20 34.443784 -114.395366 255 38000ft 484kts
18-Jun-17 17:21 34.410247 -114.551914 255 38000ft 484kts
18-Jun-17 17:22 34.377980 -114.701541 255 38000ft 484kts
18-Jun-17 17:23 34.344225 -114.857049 255 38000ft 484kts
18-Jun-17 17:24 34.310028 -115.013435 255 38000ft 484kts
18-Jun-17 17:25 34.275558 -115.169951 255 38000ft 484kts
18-Jun-17 17:26 34.242433 -115.323744 255 38002ft 502kts
18-Jun-17 17:27 34.207378 -115.487555 255 37999ft 508kts
18-Jun-17 17:28 34.172230 -115.650672 255 37999ft 508kts
18-Jun-17 17:29 34.156569 -115.767055 262 38000ft 508kts
18-Jun-17 17:30 34.140178 -115.934401 263 37992ft 508kts
18-Jun-17 17:31 34.123842 -116.101216 263 36395ft 500kts
18-Jun-17 17:32 34.107950 -116.261621 263 33442ft 478kts
18-Jun-17 17:33 34.091910 -116.414289 262 31164ft 446kts
18-Jun-17 17:34 34.076833 -116.554307 262 29459ft 436kts
18-Jun-17 17:35 34.064970 -116.676924 263 27916ft 427kts
18-Jun-17 17:36 34.052582 -116.809520 263 26040ft 416kts
18-Jun-17 17:37 34.038270 -116.941328 261 23867ft 408kts
18-Jun-17 17:38 34.022077 -117.069977 261 20529ft 382kts
18-Jun-17 17:39 34.008222 -117.186544 261 16839ft 363kts
18-Jun-17 17:40 33.995418 -117.293507 261 15012ft 342kts
18-Jun-17 17:41 33.983045 -117.398541 262 15000ft 343kts
18-Jun-17 17:42 33.977020 -117.507112 280 14729ft 341kts
18-Jun-17 17:43 33.993215 -117.604869 282 13766ft 312kts
18-Jun-17 17:44 34.004313 -117.695711 264 12878ft 308kts
18-Jun-17 17:45 33.996093 -117.792022 263 11936ft 305kts
18-Jun-17 17:46 33.987235 -117.884175 263 10887ft 300kts
18-Jun-17 17:47 33.978545 -117.972648 263 9403ft 291kts
18-Jun-17 17:48 33.970123 -118.057743 263 7437ft 266kts
18-Jun-17 17:49 33.962450 -118.134846 263 5467ft 256kts
18-Jun-17 17:50 33.955360 -118.205309 262 4519ft 202kts
18-Jun-17 17:51 33.949503 -118.260197 262 3592ft 154kts
18-Jun-17 17:52 33.945213 -118.307141 264 2052ft 145kts
18-Jun-17 17:53 33.940275 -118.353108 262 706ft 135kts
18-Jun-17 17:54 33.936079 -118.394773 264 134ft 91kts
18-Jun-17 17:55 33.936062 -118.403107 292 133ft 0kts
18-Jun-17 17:56 33.936062 -118.403107 292 133ft 0kts
18-Jun-17 17:57 33.937511 -118.404211 353 133ft 14kts
18-Jun-17 17:58 33.938977 -118.405640 289 133ft 12kts
18-Jun-17 17:59 33.939775 -118.407329 82 133ft 1kts
18-Jun-17 18:00 33.939787 -118.407228 81 133ft 0kts
18-Jun-17 18:01 33.939787 -118.407228 81 133ft 0kts

Navigation Log

Ident Type
Flight plan parsing failed, navigation log unavailable